sensor_id;sensor_type;location;lat;lon;timestamp;temperature;humidity
37788;DHT22;23627;53.302;-6.362;2023-08-31T00:00:08;14.50;99.90
37788;DHT22;23627;53.302;-6.362;2023-08-31T00:02:35;14.50;99.90
37788;DHT22;23627;53.302;-6.362;2023-08-31T00:05:01;14.50;99.90
37788;DHT22;23627;53.302;-6.362;2023-08-31T00:07:26;14.50;99.90
37788;DHT22;23627;53.302;-6.362;2023-08-31T00:09:52;14.50;99.90
37788;DHT22;23627;53.302;-6.362;2023-08-31T00:12:19;14.40;99.90
37788;DHT22;23627;53.302;-6.362;2023-08-31T00:14:44;14.40;99.90
37788;DHT22;23627;53.302;-6.362;2023-08-31T00:17:10;14.50;99.90
37788;DHT22;23627;53.302;-6.362;2023-08-31T00:19:36;14.40;99.90
37788;DHT22;23627;53.302;-6.362;2023-08-31T00:22:02;14.50;99.90
37788;DHT22;23627;53.302;-6.362;2023-08-31T00:24:27;14.40;99.90
37788;DHT22;23627;53.302;-6.362;2023-08-31T00:26:57;14.40;99.90
37788;DHT22;23627;53.302;-6.362;2023-08-31T00:29:23;14.40;99.90
37788;DHT22;23627;53.302;-6.362;2023-08-31T00:31:51;14.40;99.90
37788;DHT22;23627;53.302;-6.362;2023-08-31T00:34:19;14.40;99.90
37788;DHT22;23627;53.302;-6.362;2023-08-31T00:36:44;14.40;99.90
37788;DHT22;23627;53.302;-6.362;2023-08-31T00:39:10;14.40;99.90
37788;DHT22;23627;53.302;-6.362;2023-08-31T00:41:37;14.40;99.90
37788;DHT22;23627;53.302;-6.362;2023-08-31T00:44:03;14.40;99.90
37788;DHT22;23627;53.302;-6.362;2023-08-31T00:46:33;14.30;99.90
37788;DHT22;23627;53.302;-6.362;2023-08-31T00:48:59;14.30;99.90
37788;DHT22;23627;53.302;-6.362;2023-08-31T00:51:25;14.30;99.90
37788;DHT22;23627;53.302;-6.362;2023-08-31T00:53:52;14.30;99.90
37788;DHT22;23627;53.302;-6.362;2023-08-31T00:56:20;14.30;99.90
37788;DHT22;23627;53.302;-6.362;2023-08-31T00:58:47;14.30;99.90
37788;DHT22;23627;53.302;-6.362;2023-08-31T01:01:35;14.20;99.90
37788;DHT22;23627;53.302;-6.362;2023-08-31T01:12:02;14.10;99.90
37788;DHT22;23627;53.302;-6.362;2023-08-31T01:14:33;14.10;99.90
37788;DHT22;23627;53.302;-6.362;2023-08-31T01:17:02;14.10;99.90
37788;DHT22;23627;53.302;-6.362;2023-08-31T01:19:48;14.10;99.90
37788;DHT22;23627;53.302;-6.362;2023-08-31T01:22:29;14.10;99.90
37788;DHT22;23627;53.302;-6.362;2023-08-31T01:24:58;14.10;99.90
37788;DHT22;23627;53.302;-6.362;2023-08-31T01:27:24;14.10;99.90
37788;DHT22;23627;53.302;-6.362;2023-08-31T01:29:50;14.10;99.90
37788;DHT22;23627;53.302;-6.362;2023-08-31T01:32:17;14.10;99.90
37788;DHT22;23627;53.302;-6.362;2023-08-31T01:34:42;14.00;99.90
37788;DHT22;23627;53.302;-6.362;2023-08-31T01:37:15;14.00;99.90
37788;DHT22;23627;53.302;-6.362;2023-08-31T01:39:55;14.10;99.90
37788;DHT22;23627;53.302;-6.362;2023-08-31T01:42:22;14.00;99.90
37788;DHT22;23627;53.302;-6.362;2023-08-31T01:44:50;14.00;99.90
37788;DHT22;23627;53.302;-6.362;2023-08-31T01:47:17;14.00;99.90
37788;DHT22;23627;53.302;-6.362;2023-08-31T01:49:44;14.00;99.90
37788;DHT22;23627;53.302;-6.362;2023-08-31T01:52:10;14.00;99.90
37788;DHT22;23627;53.302;-6.362;2023-08-31T01:54:36;14.00;99.90
37788;DHT22;23627;53.302;-6.362;2023-08-31T01:57:03;14.00;99.90
37788;DHT22;23627;53.302;-6.362;2023-08-31T01:59:29;14.00;99.90
37788;DHT22;23627;53.302;-6.362;2023-08-31T02:01:55;14.00;99.90
37788;DHT22;23627;53.302;-6.362;2023-08-31T02:04:21;14.00;99.90
37788;DHT22;23627;53.302;-6.362;2023-08-31T02:06:47;14.00;99.90
37788;DHT22;23627;53.302;-6.362;2023-08-31T02:09:13;14.00;99.90
37788;DHT22;23627;53.302;-6.362;2023-08-31T02:11:39;14.00;99.90
37788;DHT22;23627;53.302;-6.362;2023-08-31T02:14:05;13.90;99.90
37788;DHT22;23627;53.302;-6.362;2023-08-31T02:16:31;13.90;99.90
37788;DHT22;23627;53.302;-6.362;2023-08-31T02:18:58;13.90;99.90
37788;DHT22;23627;53.302;-6.362;2023-08-31T02:21:24;13.90;99.90
37788;DHT22;23627;53.302;-6.362;2023-08-31T02:23:50;13.90;99.90
37788;DHT22;23627;53.302;-6.362;2023-08-31T02:26:15;13.90;99.90
37788;DHT22;23627;53.302;-6.362;2023-08-31T02:28:41;13.90;99.90
37788;DHT22;23627;53.302;-6.362;2023-08-31T02:31:07;13.90;99.90
37788;DHT22;23627;53.302;-6.362;2023-08-31T02:33:32;13.90;99.90
37788;DHT22;23627;53.302;-6.362;2023-08-31T02:35:58;13.90;99.90
37788;DHT22;23627;53.302;-6.362;2023-08-31T02:38:24;13.80;99.90
37788;DHT22;23627;53.302;-6.362;2023-08-31T02:40:50;13.80;99.90
37788;DHT22;23627;53.302;-6.362;2023-08-31T02:43:15;13.80;99.90
37788;DHT22;23627;53.302;-6.362;2023-08-31T02:45:41;13.80;99.90
37788;DHT22;23627;53.302;-6.362;2023-08-31T02:48:07;13.80;99.90
37788;DHT22;23627;53.302;-6.362;2023-08-31T02:50:36;13.80;99.90
37788;DHT22;23627;53.302;-6.362;2023-08-31T02:53:03;13.80;99.90
37788;DHT22;23627;53.302;-6.362;2023-08-31T02:55:29;13.80;99.90
37788;DHT22;23627;53.302;-6.362;2023-08-31T02:57:57;13.70;99.90
37788;DHT22;23627;53.302;-6.362;2023-08-31T03:00:22;13.70;99.90
37788;DHT22;23627;53.302;-6.362;2023-08-31T03:02:48;13.70;99.90
37788;DHT22;23627;53.302;-6.362;2023-08-31T03:05:17;13.70;99.90
37788;DHT22;23627;53.302;-6.362;2023-08-31T03:07:43;13.70;99.90
37788;DHT22;23627;53.302;-6.362;2023-08-31T03:10:09;13.60;99.90
37788;DHT22;23627;53.302;-6.362;2023-08-31T03:12:36;13.60;99.90
37788;DHT22;23627;53.302;-6.362;2023-08-31T03:15:02;13.60;99.90
37788;DHT22;23627;53.302;-6.362;2023-08-31T03:17:28;13.60;99.90
37788;DHT22;23627;53.302;-6.362;2023-08-31T03:19:53;13.60;99.90
37788;DHT22;23627;53.302;-6.362;2023-08-31T03:22:19;13.60;99.90
37788;DHT22;23627;53.302;-6.362;2023-08-31T03:24:45;13.60;99.90
37788;DHT22;23627;53.302;-6.362;2023-08-31T03:27:11;13.60;99.90
37788;DHT22;23627;53.302;-6.362;2023-08-31T03:29:36;13.60;99.90
37788;DHT22;23627;53.302;-6.362;2023-08-31T03:32:02;13.70;99.90
37788;DHT22;23627;53.302;-6.362;2023-08-31T03:34:29;13.80;99.90
37788;DHT22;23627;53.302;-6.362;2023-08-31T03:36:56;13.80;99.90
37788;DHT22;23627;53.302;-6.362;2023-08-31T03:39:22;13.90;99.90
37788;DHT22;23627;53.302;-6.362;2023-08-31T03:41:47;13.90;99.90
37788;DHT22;23627;53.302;-6.362;2023-08-31T03:44:13;13.90;99.90
37788;DHT22;23627;53.302;-6.362;2023-08-31T03:46:39;13.80;99.90
37788;DHT22;23627;53.302;-6.362;2023-08-31T03:49:04;13.90;99.90
37788;DHT22;23627;53.302;-6.362;2023-08-31T03:51:30;13.80;99.90
37788;DHT22;23627;53.302;-6.362;2023-08-31T03:53:56;13.80;99.90
37788;DHT22;23627;53.302;-6.362;2023-08-31T03:56:22;13.80;99.90
37788;DHT22;23627;53.302;-6.362;2023-08-31T03:58:48;13.80;99.90
37788;DHT22;23627;53.302;-6.362;2023-08-31T04:01:14;13.80;99.90
37788;DHT22;23627;53.302;-6.362;2023-08-31T04:03:43;13.70;99.90
37788;DHT22;23627;53.302;-6.362;2023-08-31T04:06:09;13.80;99.90
37788;DHT22;23627;53.302;-6.362;2023-08-31T04:08:34;13.70;99.90
37788;DHT22;23627;53.302;-6.362;2023-08-31T04:11:02;13.80;99.90
37788;DHT22;23627;53.302;-6.362;2023-08-31T04:13:28;13.90;99.90
37788;DHT22;23627;53.302;-6.362;2023-08-31T04:15:54;14.00;99.90
37788;DHT22;23627;53.302;-6.362;2023-08-31T04:18:21;14.00;99.90
37788;DHT22;23627;53.302;-6.362;2023-08-31T04:20:51;14.00;99.90
37788;DHT22;23627;53.302;-6.362;2023-08-31T04:23:18;14.00;99.90
37788;DHT22;23627;53.302;-6.362;2023-08-31T04:25:44;13.90;99.90
37788;DHT22;23627;53.302;-6.362;2023-08-31T04:28:10;13.90;99.90
37788;DHT22;23627;53.302;-6.362;2023-08-31T04:30:36;14.00;99.90
37788;DHT22;23627;53.302;-6.362;2023-08-31T04:33:01;14.00;99.90
37788;DHT22;23627;53.302;-6.362;2023-08-31T04:35:30;14.00;99.90
37788;DHT22;23627;53.302;-6.362;2023-08-31T04:37:57;13.90;99.90
37788;DHT22;23627;53.302;-6.362;2023-08-31T04:40:23;13.90;99.90
37788;DHT22;23627;53.302;-6.362;2023-08-31T04:42:49;13.80;99.90
37788;DHT22;23627;53.302;-6.362;2023-08-31T04:45:15;13.80;99.90
37788;DHT22;23627;53.302;-6.362;2023-08-31T04:47:41;13.70;99.90
37788;DHT22;23627;53.302;-6.362;2023-08-31T04:50:08;13.70;99.90
37788;DHT22;23627;53.302;-6.362;2023-08-31T04:52:34;13.70;99.90
37788;DHT22;23627;53.302;-6.362;2023-08-31T04:55:03;13.80;99.90
37788;DHT22;23627;53.302;-6.362;2023-08-31T04:57:30;13.80;99.90
37788;DHT22;23627;53.302;-6.362;2023-08-31T04:59:55;13.80;99.90
37788;DHT22;23627;53.302;-6.362;2023-08-31T05:02:21;13.80;99.90
37788;DHT22;23627;53.302;-6.362;2023-08-31T05:04:47;13.80;99.90
37788;DHT22;23627;53.302;-6.362;2023-08-31T05:07:13;13.80;99.90
37788;DHT22;23627;53.302;-6.362;2023-08-31T05:09:39;13.90;99.90
37788;DHT22;23627;53.302;-6.362;2023-08-31T05:12:05;13.90;99.90
37788;DHT22;23627;53.302;-6.362;2023-08-31T05:14:30;14.00;99.90
37788;DHT22;23627;53.302;-6.362;2023-08-31T05:16:56;14.00;99.90
37788;DHT22;23627;53.302;-6.362;2023-08-31T05:19:22;14.00;99.90
37788;DHT22;23627;53.302;-6.362;2023-08-31T05:21:48;14.00;99.90
37788;DHT22;23627;53.302;-6.362;2023-08-31T05:24:13;13.90;99.90
37788;DHT22;23627;53.302;-6.362;2023-08-31T05:26:39;13.80;99.90
37788;DHT22;23627;53.302;-6.362;2023-08-31T05:29:06;13.80;99.90
37788;DHT22;23627;53.302;-6.362;2023-08-31T05:31:32;13.70;99.90
37788;DHT22;23627;53.302;-6.362;2023-08-31T05:33:58;13.80;99.90
37788;DHT22;23627;53.302;-6.362;2023-08-31T05:36:24;13.80;99.90
37788;DHT22;23627;53.302;-6.362;2023-08-31T05:38:51;13.80;99.90
37788;DHT22;23627;53.302;-6.362;2023-08-31T05:41:17;13.80;99.90
37788;DHT22;23627;53.302;-6.362;2023-08-31T05:43:43;13.80;99.90
37788;DHT22;23627;53.302;-6.362;2023-08-31T05:46:08;13.80;99.90
37788;DHT22;23627;53.302;-6.362;2023-08-31T05:48:35;13.70;99.90
37788;DHT22;23627;53.302;-6.362;2023-08-31T05:51:01;13.70;99.90
37788;DHT22;23627;53.302;-6.362;2023-08-31T05:53:31;13.70;99.90
37788;DHT22;23627;53.302;-6.362;2023-08-31T05:55:58;13.80;99.90
37788;DHT22;23627;53.302;-6.362;2023-08-31T05:58:31;13.80;99.90
37788;DHT22;23627;53.302;-6.362;2023-08-31T06:00:57;13.80;99.90
37788;DHT22;23627;53.302;-6.362;2023-08-31T06:03:22;13.80;99.90
37788;DHT22;23627;53.302;-6.362;2023-08-31T06:05:49;13.80;99.90
37788;DHT22;23627;53.302;-6.362;2023-08-31T06:08:15;13.80;99.90
37788;DHT22;23627;53.302;-6.362;2023-08-31T06:10:41;13.80;99.90
37788;DHT22;23627;53.302;-6.362;2023-08-31T06:13:07;13.80;99.90
37788;DHT22;23627;53.302;-6.362;2023-08-31T06:15:32;13.80;99.90
37788;DHT22;23627;53.302;-6.362;2023-08-31T06:17:58;13.80;99.90
37788;DHT22;23627;53.302;-6.362;2023-08-31T06:20:24;13.70;99.90
37788;DHT22;23627;53.302;-6.362;2023-08-31T06:22:50;13.80;99.90
37788;DHT22;23627;53.302;-6.362;2023-08-31T06:25:15;13.80;99.90
37788;DHT22;23627;53.302;-6.362;2023-08-31T06:27:44;13.80;99.90
37788;DHT22;23627;53.302;-6.362;2023-08-31T06:30:10;13.90;99.90
37788;DHT22;23627;53.302;-6.362;2023-08-31T06:32:42;13.90;99.90
37788;DHT22;23627;53.302;-6.362;2023-08-31T06:35:08;13.90;99.90
37788;DHT22;23627;53.302;-6.362;2023-08-31T06:37:34;14.00;99.90
37788;DHT22;23627;53.302;-6.362;2023-08-31T06:39:59;14.00;99.90
37788;DHT22;23627;53.302;-6.362;2023-08-31T06:42:25;14.00;99.90
37788;DHT22;23627;53.302;-6.362;2023-08-31T06:44:51;14.00;99.90
37788;DHT22;23627;53.302;-6.362;2023-08-31T06:47:17;14.00;99.90
37788;DHT22;23627;53.302;-6.362;2023-08-31T06:49:43;14.00;99.90
37788;DHT22;23627;53.302;-6.362;2023-08-31T06:52:09;14.00;99.90
37788;DHT22;23627;53.302;-6.362;2023-08-31T06:54:34;14.10;99.90
37788;DHT22;23627;53.302;-6.362;2023-08-31T06:57:00;14.10;99.90
37788;DHT22;23627;53.302;-6.362;2023-08-31T06:59:26;14.10;99.90
37788;DHT22;23627;53.302;-6.362;2023-08-31T07:01:51;14.10;99.90
37788;DHT22;23627;53.302;-6.362;2023-08-31T07:04:17;14.10;99.90
37788;DHT22;23627;53.302;-6.362;2023-08-31T07:06:43;14.10;99.90
37788;DHT22;23627;53.302;-6.362;2023-08-31T07:09:09;14.00;99.90
37788;DHT22;23627;53.302;-6.362;2023-08-31T07:11:35;14.00;99.90
37788;DHT22;23627;53.302;-6.362;2023-08-31T07:14:01;14.00;99.90
37788;DHT22;23627;53.302;-6.362;2023-08-31T07:16:27;14.00;99.90
37788;DHT22;23627;53.302;-6.362;2023-08-31T07:18:52;13.90;99.90
37788;DHT22;23627;53.302;-6.362;2023-08-31T07:21:18;13.90;99.90
37788;DHT22;23627;53.302;-6.362;2023-08-31T07:23:45;13.90;99.90
37788;DHT22;23627;53.302;-6.362;2023-08-31T07:26:10;13.90;99.90
37788;DHT22;23627;53.302;-6.362;2023-08-31T07:28:36;13.90;99.90
37788;DHT22;23627;53.302;-6.362;2023-08-31T07:31:06;13.90;99.90
37788;DHT22;23627;53.302;-6.362;2023-08-31T07:33:32;13.90;99.90
37788;DHT22;23627;53.302;-6.362;2023-08-31T07:36:00;13.90;99.90
37788;DHT22;23627;53.302;-6.362;2023-08-31T07:38:27;14.00;99.90
37788;DHT22;23627;53.302;-6.362;2023-08-31T07:40:56;14.00;99.90
37788;DHT22;23627;53.302;-6.362;2023-08-31T07:43:21;13.90;99.90
37788;DHT22;23627;53.302;-6.362;2023-08-31T07:45:47;14.00;99.90
37788;DHT22;23627;53.302;-6.362;2023-08-31T07:48:14;14.00;99.90
37788;DHT22;23627;53.302;-6.362;2023-08-31T07:50:43;14.00;99.90
37788;DHT22;23627;53.302;-6.362;2023-08-31T07:53:09;14.00;99.90
37788;DHT22;23627;53.302;-6.362;2023-08-31T07:55:35;14.00;99.90
37788;DHT22;23627;53.302;-6.362;2023-08-31T07:58:01;14.00;99.90
37788;DHT22;23627;53.302;-6.362;2023-08-31T08:00:27;14.10;99.90
37788;DHT22;23627;53.302;-6.362;2023-08-31T08:02:52;14.20;99.90
37788;DHT22;23627;53.302;-6.362;2023-08-31T08:05:18;14.20;99.90
37788;DHT22;23627;53.302;-6.362;2023-08-31T08:07:44;14.20;99.90
37788;DHT22;23627;53.302;-6.362;2023-08-31T08:10:11;14.30;99.90
37788;DHT22;23627;53.302;-6.362;2023-08-31T08:12:39;14.30;99.90
37788;DHT22;23627;53.302;-6.362;2023-08-31T08:15:06;14.30;99.90
37788;DHT22;23627;53.302;-6.362;2023-08-31T08:17:33;14.40;99.90
37788;DHT22;23627;53.302;-6.362;2023-08-31T08:19:59;14.40;99.90
37788;DHT22;23627;53.302;-6.362;2023-08-31T08:22:25;14.50;99.90
37788;DHT22;23627;53.302;-6.362;2023-08-31T08:24:51;14.50;99.90
37788;DHT22;23627;53.302;-6.362;2023-08-31T08:27:16;14.50;99.90
37788;DHT22;23627;53.302;-6.362;2023-08-31T08:29:45;14.60;99.90
37788;DHT22;23627;53.302;-6.362;2023-08-31T08:32:11;14.60;99.90
37788;DHT22;23627;53.302;-6.362;2023-08-31T08:34:36;14.70;99.90
37788;DHT22;23627;53.302;-6.362;2023-08-31T08:37:02;14.80;99.90
37788;DHT22;23627;53.302;-6.362;2023-08-31T08:39:31;14.90;99.90
37788;DHT22;23627;53.302;-6.362;2023-08-31T08:41:58;15.00;99.90
37788;DHT22;23627;53.302;-6.362;2023-08-31T08:44:31;15.10;99.90
37788;DHT22;23627;53.302;-6.362;2023-08-31T08:46:58;15.10;99.90
37788;DHT22;23627;53.302;-6.362;2023-08-31T08:49:29;15.30;99.90
37788;DHT22;23627;53.302;-6.362;2023-08-31T08:51:56;15.40;99.90
37788;DHT22;23627;53.302;-6.362;2023-08-31T08:54:25;15.40;99.90
37788;DHT22;23627;53.302;-6.362;2023-08-31T08:56:51;15.50;99.90
37788;DHT22;23627;53.302;-6.362;2023-08-31T08:59:16;15.50;99.90
37788;DHT22;23627;53.302;-6.362;2023-08-31T09:01:42;15.50;99.90
37788;DHT22;23627;53.302;-6.362;2023-08-31T09:04:09;15.50;99.90
37788;DHT22;23627;53.302;-6.362;2023-08-31T09:06:35;15.50;99.90
37788;DHT22;23627;53.302;-6.362;2023-08-31T09:09:01;15.40;99.90
37788;DHT22;23627;53.302;-6.362;2023-08-31T09:11:27;15.40;99.90
37788;DHT22;23627;53.302;-6.362;2023-08-31T09:13:53;15.40;99.90
37788;DHT22;23627;53.302;-6.362;2023-08-31T09:16:28;15.30;99.90
37788;DHT22;23627;53.302;-6.362;2023-08-31T09:18:55;15.40;99.90
37788;DHT22;23627;53.302;-6.362;2023-08-31T09:21:20;15.40;99.90
37788;DHT22;23627;53.302;-6.362;2023-08-31T09:23:56;15.50;99.90
37788;DHT22;23627;53.302;-6.362;2023-08-31T09:26:24;15.60;99.90
37788;DHT22;23627;53.302;-6.362;2023-08-31T09:28:50;15.60;99.90
37788;DHT22;23627;53.302;-6.362;2023-08-31T09:31:16;15.80;99.90
37788;DHT22;23627;53.302;-6.362;2023-08-31T09:33:51;15.90;99.90
37788;DHT22;23627;53.302;-6.362;2023-08-31T09:36:17;15.90;99.90
37788;DHT22;23627;53.302;-6.362;2023-08-31T09:38:44;16.00;99.90
37788;DHT22;23627;53.302;-6.362;2023-08-31T09:41:12;16.00;99.90
37788;DHT22;23627;53.302;-6.362;2023-08-31T09:43:38;16.10;99.90
37788;DHT22;23627;53.302;-6.362;2023-08-31T09:46:04;16.30;99.90
37788;DHT22;23627;53.302;-6.362;2023-08-31T09:48:30;16.30;99.90
37788;DHT22;23627;53.302;-6.362;2023-08-31T09:50:57;16.40;99.90
37788;DHT22;23627;53.302;-6.362;2023-08-31T09:53:28;16.50;99.90
37788;DHT22;23627;53.302;-6.362;2023-08-31T09:55:54;16.60;99.90
37788;DHT22;23627;53.302;-6.362;2023-08-31T09:58:22;16.70;99.90
37788;DHT22;23627;53.302;-6.362;2023-08-31T10:00:52;16.90;99.90
37788;DHT22;23627;53.302;-6.362;2023-08-31T10:03:18;17.00;99.90
37788;DHT22;23627;53.302;-6.362;2023-08-31T10:05:47;17.10;99.90
37788;DHT22;23627;53.302;-6.362;2023-08-31T10:08:14;17.10;99.90
37788;DHT22;23627;53.302;-6.362;2023-08-31T10:10:40;17.10;99.90
37788;DHT22;23627;53.302;-6.362;2023-08-31T10:13:07;17.10;99.90
37788;DHT22;23627;53.302;-6.362;2023-08-31T10:15:34;17.10;99.90
37788;DHT22;23627;53.302;-6.362;2023-08-31T10:18:01;17.10;99.90
37788;DHT22;23627;53.302;-6.362;2023-08-31T10:20:29;17.10;99.90
37788;DHT22;23627;53.302;-6.362;2023-08-31T10:23:06;17.20;99.90
37788;DHT22;23627;53.302;-6.362;2023-08-31T10:28:23;17.30;99.90
37788;DHT22;23627;53.302;-6.362;2023-08-31T10:31:27;17.30;99.90
37788;DHT22;23627;53.302;-6.362;2023-08-31T10:34:03;17.40;99.90
37788;DHT22;23627;53.302;-6.362;2023-08-31T10:36:40;17.40;99.90
37788;DHT22;23627;53.302;-6.362;2023-08-31T10:39:13;17.40;99.90
37788;DHT22;23627;53.302;-6.362;2023-08-31T10:41:39;17.60;99.90
37788;DHT22;23627;53.302;-6.362;2023-08-31T10:44:26;17.60;99.90
37788;DHT22;23627;53.302;-6.362;2023-08-31T10:46:52;17.60;99.90
37788;DHT22;23627;53.302;-6.362;2023-08-31T10:49:21;17.60;99.90
37788;DHT22;23627;53.302;-6.362;2023-08-31T10:51:54;17.60;99.90
37788;DHT22;23627;53.302;-6.362;2023-08-31T10:54:31;17.70;99.90
37788;DHT22;23627;53.302;-6.362;2023-08-31T10:59:46;17.80;99.90
37788;DHT22;23627;53.302;-6.362;2023-08-31T11:05:02;17.70;99.90
37788;DHT22;23627;53.302;-6.362;2023-08-31T11:07:29;17.60;99.90
37788;DHT22;23627;53.302;-6.362;2023-08-31T11:10:08;17.60;99.90
37788;DHT22;23627;53.302;-6.362;2023-08-31T11:12:35;17.70;99.90
37788;DHT22;23627;53.302;-6.362;2023-08-31T11:15:01;17.80;99.90
37788;DHT22;23627;53.302;-6.362;2023-08-31T11:17:29;17.80;99.90
37788;DHT22;23627;53.302;-6.362;2023-08-31T11:19:58;17.90;99.90
37788;DHT22;23627;53.302;-6.362;2023-08-31T11:22:24;18.10;99.90
37788;DHT22;23627;53.302;-6.362;2023-08-31T11:24:50;18.20;99.90
37788;DHT22;23627;53.302;-6.362;2023-08-31T11:27:19;18.30;99.90
37788;DHT22;23627;53.302;-6.362;2023-08-31T11:29:46;18.50;99.90
37788;DHT22;23627;53.302;-6.362;2023-08-31T11:32:11;18.60;99.90
37788;DHT22;23627;53.302;-6.362;2023-08-31T11:34:44;18.70;99.90
37788;DHT22;23627;53.302;-6.362;2023-08-31T11:37:12;18.80;99.90
37788;DHT22;23627;53.302;-6.362;2023-08-31T11:39:59;18.90;99.90
37788;DHT22;23627;53.302;-6.362;2023-08-31T11:42:26;18.90;99.90
37788;DHT22;23627;53.302;-6.362;2023-08-31T11:44:53;18.90;99.90
37788;DHT22;23627;53.302;-6.362;2023-08-31T11:47:20;19.00;99.90
37788;DHT22;23627;53.302;-6.362;2023-08-31T11:49:46;19.00;99.90
37788;DHT22;23627;53.302;-6.362;2023-08-31T11:52:14;19.10;99.90
37788;DHT22;23627;53.302;-6.362;2023-08-31T11:54:42;19.10;99.90
37788;DHT22;23627;53.302;-6.362;2023-08-31T11:57:09;19.10;99.90
37788;DHT22;23627;53.302;-6.362;2023-08-31T11:59:36;19.00;99.90
37788;DHT22;23627;53.302;-6.362;2023-08-31T12:02:05;19.00;99.90
37788;DHT22;23627;53.302;-6.362;2023-08-31T12:04:32;18.90;99.90
37788;DHT22;23627;53.302;-6.362;2023-08-31T12:07:02;18.80;99.90
37788;DHT22;23627;53.302;-6.362;2023-08-31T12:09:32;18.70;99.90
37788;DHT22;23627;53.302;-6.362;2023-08-31T12:11:58;18.60;99.90
37788;DHT22;23627;53.302;-6.362;2023-08-31T12:14:26;18.60;99.90
37788;DHT22;23627;53.302;-6.362;2023-08-31T12:16:59;18.60;99.90
37788;DHT22;23627;53.302;-6.362;2023-08-31T12:19:27;18.50;99.90
37788;DHT22;23627;53.302;-6.362;2023-08-31T12:21:56;18.40;99.90
37788;DHT22;23627;53.302;-6.362;2023-08-31T12:24:22;18.30;99.90
37788;DHT22;23627;53.302;-6.362;2023-08-31T12:26:49;18.30;99.90
37788;DHT22;23627;53.302;-6.362;2023-08-31T12:29:15;18.40;99.90
37788;DHT22;23627;53.302;-6.362;2023-08-31T12:31:43;18.40;99.90
37788;DHT22;23627;53.302;-6.362;2023-08-31T12:34:14;18.50;99.90
37788;DHT22;23627;53.302;-6.362;2023-08-31T12:36:41;18.50;99.90
37788;DHT22;23627;53.302;-6.362;2023-08-31T12:39:08;18.60;99.90
37788;DHT22;23627;53.302;-6.362;2023-08-31T12:41:44;18.60;99.90
37788;DHT22;23627;53.302;-6.362;2023-08-31T12:44:10;18.60;99.90
37788;DHT22;23627;53.302;-6.362;2023-08-31T12:46:35;18.60;99.90
37788;DHT22;23627;53.302;-6.362;2023-08-31T12:49:02;18.50;99.90
37788;DHT22;23627;53.302;-6.362;2023-08-31T12:51:31;18.70;99.90
37788;DHT22;23627;53.302;-6.362;2023-08-31T12:53:57;18.60;99.90
37788;DHT22;23627;53.302;-6.362;2023-08-31T12:56:23;18.60;99.90
37788;DHT22;23627;53.302;-6.362;2023-08-31T12:58:50;18.60;99.90
37788;DHT22;23627;53.302;-6.362;2023-08-31T13:01:19;18.60;99.90
37788;DHT22;23627;53.302;-6.362;2023-08-31T13:03:46;18.50;99.90
37788;DHT22;23627;53.302;-6.362;2023-08-31T13:06:15;18.60;99.90
37788;DHT22;23627;53.302;-6.362;2023-08-31T13:08:44;18.50;99.90
37788;DHT22;23627;53.302;-6.362;2023-08-31T13:11:11;18.50;99.90
37788;DHT22;23627;53.302;-6.362;2023-08-31T13:13:38;18.50;99.90
37788;DHT22;23627;53.302;-6.362;2023-08-31T13:16:04;18.50;99.90
37788;DHT22;23627;53.302;-6.362;2023-08-31T13:18:30;18.60;99.90
37788;DHT22;23627;53.302;-6.362;2023-08-31T13:20:56;18.60;99.90
37788;DHT22;23627;53.302;-6.362;2023-08-31T13:23:22;18.70;99.90
37788;DHT22;23627;53.302;-6.362;2023-08-31T13:25:48;18.80;99.90
37788;DHT22;23627;53.302;-6.362;2023-08-31T13:28:14;18.80;99.90
37788;DHT22;23627;53.302;-6.362;2023-08-31T13:30:40;18.80;99.90
37788;DHT22;23627;53.302;-6.362;2023-08-31T13:33:08;18.90;99.90
37788;DHT22;23627;53.302;-6.362;2023-08-31T13:35:34;18.90;99.90
37788;DHT22;23627;53.302;-6.362;2023-08-31T13:38:01;18.90;99.90
37788;DHT22;23627;53.302;-6.362;2023-08-31T13:40:28;18.90;99.90
37788;DHT22;23627;53.302;-6.362;2023-08-31T13:42:55;19.00;99.90
37788;DHT22;23627;53.302;-6.362;2023-08-31T13:45:27;19.10;99.90
37788;DHT22;23627;53.302;-6.362;2023-08-31T13:47:53;19.20;99.90
37788;DHT22;23627;53.302;-6.362;2023-08-31T13:50:19;19.30;99.90
37788;DHT22;23627;53.302;-6.362;2023-08-31T13:52:45;19.30;99.90
37788;DHT22;23627;53.302;-6.362;2023-08-31T13:55:11;19.30;99.90
37788;DHT22;23627;53.302;-6.362;2023-08-31T13:57:38;19.20;99.90
37788;DHT22;23627;53.302;-6.362;2023-08-31T14:00:05;19.30;99.90
37788;DHT22;23627;53.302;-6.362;2023-08-31T14:02:34;19.30;99.90
37788;DHT22;23627;53.302;-6.362;2023-08-31T14:05:01;19.30;99.90
37788;DHT22;23627;53.302;-6.362;2023-08-31T14:07:29;19.40;99.90
37788;DHT22;23627;53.302;-6.362;2023-08-31T14:09:55;19.40;99.90
37788;DHT22;23627;53.302;-6.362;2023-08-31T14:12:20;19.50;99.90
37788;DHT22;23627;53.302;-6.362;2023-08-31T14:14:47;19.50;99.90
37788;DHT22;23627;53.302;-6.362;2023-08-31T14:17:13;19.50;99.90
37788;DHT22;23627;53.302;-6.362;2023-08-31T14:19:39;19.50;99.90
37788;DHT22;23627;53.302;-6.362;2023-08-31T14:22:05;19.60;99.90
37788;DHT22;23627;53.302;-6.362;2023-08-31T14:24:31;19.60;99.90
37788;DHT22;23627;53.302;-6.362;2023-08-31T14:26:57;19.50;99.90
37788;DHT22;23627;53.302;-6.362;2023-08-31T14:29:23;19.40;99.90
37788;DHT22;23627;53.302;-6.362;2023-08-31T14:31:49;19.40;99.90
37788;DHT22;23627;53.302;-6.362;2023-08-31T14:34:15;19.20;99.90
37788;DHT22;23627;53.302;-6.362;2023-08-31T14:36:40;19.10;99.90
37788;DHT22;23627;53.302;-6.362;2023-08-31T14:39:06;19.00;99.90
37788;DHT22;23627;53.302;-6.362;2023-08-31T14:41:32;18.90;99.90
37788;DHT22;23627;53.302;-6.362;2023-08-31T14:43:58;19.00;99.90
37788;DHT22;23627;53.302;-6.362;2023-08-31T14:46:23;18.90;99.90
37788;DHT22;23627;53.302;-6.362;2023-08-31T14:48:50;18.90;99.90
37788;DHT22;23627;53.302;-6.362;2023-08-31T14:51:16;18.90;99.90
37788;DHT22;23627;53.302;-6.362;2023-08-31T14:53:42;18.70;99.90
37788;DHT22;23627;53.302;-6.362;2023-08-31T14:56:08;18.60;99.90
37788;DHT22;23627;53.302;-6.362;2023-08-31T14:58:34;18.50;99.90
37788;DHT22;23627;53.302;-6.362;2023-08-31T15:01:00;18.40;99.90
37788;DHT22;23627;53.302;-6.362;2023-08-31T15:03:26;18.30;99.90
37788;DHT22;23627;53.302;-6.362;2023-08-31T15:05:52;18.20;99.90
37788;DHT22;23627;53.302;-6.362;2023-08-31T15:08:17;18.20;99.90
37788;DHT22;23627;53.302;-6.362;2023-08-31T15:10:43;18.20;99.90
37788;DHT22;23627;53.302;-6.362;2023-08-31T15:13:09;18.20;99.90
37788;DHT22;23627;53.302;-6.362;2023-08-31T15:15:37;18.20;99.90
37788;DHT22;23627;53.302;-6.362;2023-08-31T15:18:02;18.10;99.90
37788;DHT22;23627;53.302;-6.362;2023-08-31T15:20:29;18.00;99.90
37788;DHT22;23627;53.302;-6.362;2023-08-31T15:22:55;18.10;99.90
37788;DHT22;23627;53.302;-6.362;2023-08-31T15:25:21;18.10;99.90
37788;DHT22;23627;53.302;-6.362;2023-08-31T15:27:46;18.10;99.90
37788;DHT22;23627;53.302;-6.362;2023-08-31T15:30:12;18.20;99.90